Terminal Aerodrome Forecast
Issued by NWS

Home | Current Version | Previous Version | Text Only | Print | Product List | Glossary On
Versions: 1 2 3 4 5 6 7 8 9 10 11 12 13 14 15 16 17 18 19 20 21 22 23 24 25 26 27 28
897
FTUS46 KSEW 220520
TAFSEA
TAF
KSEA 220520Z 2206/2312 VRB04KT P6SM BKN015 BKN025
     FM220700 17007KT P6SM SCT015 BKN025
     FM221300 19008KT P6SM SCT012 OVC018
     FM222000 20008KT P6SM VCSH BKN025 OVC040
     FM230300 VRB03KT P6SM VCSH SCT030 BKN050=

USA.gov is the U.S. government's official web portal to all federal, state and local government web resources and services.